PWSweather.com
Personal Weather Stations
Station Observations
MACKBIG
Historic Main Street, Unionville, ON L3R6A5

Historic Main StreetUnionville, ON L3R6A5

Lat: 43.875506, Lon: -79.312903

Elevation: 590

Station Type: Davis VP2 + 6163

http://www.mackweather.com

Latest ConditionsUpdated 7:50:06 AM EST Monday, Jan 16, 2017
Currently Today's Max Today's Min Today's Average
Temperature 20.2°F-6.6°C 21.4°F-5.9°C 17.9°F-7.8°C 19.1°F-7.2°C
Dew Point 17.7°F-7.9°C 18.1°F-7.7°C 14.6°F-9.7°C 15.7°F-9.1°C
Winds Calm Calm Calm WNWCalm WNW - Calm Calm
Wind Gusts -- 5.0 mph8.0 kmh - -
Humidity 90% 92% 82% 87%
Pressure 30.32 in1026.8 mb 30.34 in1027.4 mb 30.31 in1026.4 mb -
Hour Temp Dew Point Humidity Winds Wind Gusts Pressure Precip Precip Rate Daily Precip Total
07:50 AM 20.2°F-6.6°C 17.7°F-7.9°C 90% Calm Calm -- 30.32 in1026.8 mb 0.00 in0.0 mm 0.00 in0.0 mm 0.00 in0.0 mm
07:40 AM 19.7°F-6.8°C 17.3°F-8.2°C 90% Calm Calm 5.0 mph8.0 kmh 30.32 in1026.8 mb 0.00 in0.0 mm 0.00 in0.0 mm 0.00 in0.0 mm
07:30 AM 19.3°F-7.1°C 16.8°F-8.4°C 90% Calm Calm -- 30.32 in1026.8 mb 0.00 in0.0 mm 0.00 in0.0 mm 0.00 in0.0 mm
07:20 AM 18.5°F-7.5°C 15.8°F-9.0°C 89% Calm Calm -- 30.33 in1027.1 mb 0.00 in0.0 mm 0.00 in0.0 mm 0.00 in0.0 mm
07:10 AM 17.9°F-7.8°C 15.2°F-9.3°C 89% Calm Calm 3.0 mph4.8 kmh 30.32 in1026.8 mb 0.00 in0.0 mm 0.00 in0.0 mm 0.00 in0.0 mm
07:00 AM 17.9°F-7.8°C 15.2°F-9.3°C 89% Calm Calm -- 30.32 in1026.8 mb 0.00 in0.0 mm 0.00 in0.0 mm 0.00 in0.0 mm
06:50 AM 18.0°F-7.8°C 15.3°F-9.3°C 89% Calm Calm -- 30.32 in1026.8 mb 0.00 in0.0 mm 0.00 in0.0 mm 0.00 in0.0 mm
06:40 AM 18.2°F-7.7°C 15.5°F-9.2°C 89% Calm Calm -- 30.32 in1026.8 mb 0.00 in0.0 mm 0.00 in0.0 mm 0.00 in0.0 mm
06:30 AM 18.3°F-7.6°C 15.6°F-9.1°C 89% Calm Calm -- 30.32 in1026.8 mb 0.00 in0.0 mm 0.00 in0.0 mm 0.00 in0.0 mm
06:20 AM 18.5°F-7.5°C 15.8°F-9.0°C 89% Calm Calm -- 30.32 in1026.8 mb 0.00 in0.0 mm 0.00 in0.0 mm 0.00 in0.0 mm
06:10 AM 18.4°F-7.6°C 15.7°F-9.1°C 89% Calm Calm -- 30.32 in1026.8 mb 0.00 in0.0 mm 0.00 in0.0 mm 0.00 in0.0 mm
06:00 AM 18.4°F-7.6°C 15.4°F-9.2°C 88% Calm Calm -- 30.32 in1026.8 mb 0.00 in0.0 mm 0.00 in0.0 mm 0.00 in0.0 mm
05:50 AM 18.4°F-7.6°C 15.4°F-9.2°C 88% Calm Calm -- 30.32 in1026.8 mb 0.00 in0.0 mm 0.00 in0.0 mm 0.00 in0.0 mm
05:40 AM 18.5°F-7.5°C 15.5°F-9.2°C 88% Calm Calm -- 30.32 in1026.8 mb 0.00 in0.0 mm 0.00 in0.0 mm 0.00 in0.0 mm
05:30 AM 18.3°F-7.6°C 15.3°F-9.3°C 88% Calm Calm -- 30.31 in1026.4 mb 0.00 in0.0 mm 0.00 in0.0 mm 0.00 in0.0 mm
05:20 AM 18.0°F-7.8°C 15.0°F-9.4°C 88% Calm Calm -- 30.32 in1026.8 mb 0.00 in0.0 mm 0.00 in0.0 mm 0.00 in0.0 mm
05:10 AM 17.9°F-7.8°C 14.9°F-9.5°C 88% Calm Calm -- 30.32 in1026.8 mb 0.00 in0.0 mm 0.00 in0.0 mm 0.00 in0.0 mm
05:00 AM 17.9°F-7.8°C 15.0°F-9.4°C 88% Calm Calm -- 30.32 in1026.8 mb 0.00 in0.0 mm 0.00 in0.0 mm 0.00 in0.0 mm
04:50 AM 18.0°F-7.8°C 15.0°F-9.4°C 88% Calm Calm -- 30.32 in1026.8 mb 0.00 in0.0 mm 0.00 in0.0 mm 0.00 in0.0 mm
04:40 AM 18.1°F-7.7°C 15.1°F-9.4°C 88% Calm Calm -- 30.32 in1026.8 mb 0.00 in0.0 mm 0.00 in0.0 mm 0.00 in0.0 mm
04:30 AM 18.1°F-7.7°C 14.9°F-9.5°C 87% Calm Calm -- 30.32 in1026.8 mb 0.00 in0.0 mm 0.00 in0.0 mm 0.00 in0.0 mm
04:20 AM 18.1°F-7.7°C 14.9°F-9.5°C 87% Calm Calm -- 30.32 in1026.8 mb 0.00 in0.0 mm 0.00 in0.0 mm 0.00 in0.0 mm
04:10 AM 18.1°F-7.7°C 14.9°F-9.5°C 87% Calm Calm -- 30.33 in1027.1 mb 0.00 in0.0 mm 0.00 in0.0 mm 0.00 in0.0 mm
04:00 AM 18.1°F-7.7°C 14.9°F-9.5°C 87% Calm Calm -- 30.33 in1027.1 mb 0.00 in0.0 mm 0.00 in0.0 mm 0.00 in0.0 mm
03:50 AM 18.1°F-7.7°C 14.9°F-9.5°C 87% Calm Calm -- 30.33 in1027.1 mb 0.00 in0.0 mm 0.00 in0.0 mm 0.00 in0.0 mm
03:40 AM 18.1°F-7.7°C 14.6°F-9.7°C 86% Calm Calm -- 30.33 in1027.1 mb 0.00 in0.0 mm 0.00 in0.0 mm 0.00 in0.0 mm
03:30 AM 18.2°F-7.7°C 14.7°F-9.6°C 86% Calm Calm -- 30.33 in1027.1 mb 0.00 in0.0 mm 0.00 in0.0 mm 0.00 in0.0 mm
03:20 AM 18.3°F-7.6°C 14.8°F-9.6°C 86% Calm Calm -- 30.34 in1027.4 mb 0.00 in0.0 mm 0.00 in0.0 mm 0.00 in0.0 mm
03:10 AM 18.5°F-7.5°C 15.0°F-9.4°C 86% Calm Calm -- 30.34 in1027.4 mb 0.00 in0.0 mm 0.00 in0.0 mm 0.00 in0.0 mm
03:00 AM 18.7°F-7.4°C 15.2°F-9.3°C 86% Calm Calm -- 30.34 in1027.4 mb 0.00 in0.0 mm 0.00 in0.0 mm 0.00 in0.0 mm
02:50 AM 18.9°F-7.3°C 15.4°F-9.2°C 86% Calm Calm -- 30.34 in1027.4 mb 0.00 in0.0 mm 0.00 in0.0 mm 0.00 in0.0 mm
02:40 AM 19.2°F-7.1°C 15.7°F-9.1°C 86% Calm Calm -- 30.34 in1027.4 mb 0.00 in0.0 mm 0.00 in0.0 mm 0.00 in0.0 mm
02:30 AM 19.4°F-7.0°C 15.9°F-8.9°C 86% Calm Calm -- 30.33 in1027.1 mb 0.00 in0.0 mm 0.00 in0.0 mm 0.00 in0.0 mm
02:20 AM 19.7°F-6.8°C 16.2°F-8.8°C 86% Calm Calm -- 30.34 in1027.4 mb 0.00 in0.0 mm 0.00 in0.0 mm 0.00 in0.0 mm
02:10 AM 19.8°F-6.8°C 16.0°F-8.9°C 85% Calm Calm -- 30.34 in1027.4 mb 0.00 in0.0 mm 0.00 in0.0 mm 0.00 in0.0 mm
02:00 AM 19.8°F-6.8°C 16.1°F-8.8°C 85% Calm Calm -- 30.34 in1027.4 mb 0.00 in0.0 mm 0.00 in0.0 mm 0.00 in0.0 mm
01:50 AM 19.9°F-6.7°C 16.1°F-8.8°C 85% Calm Calm -- 30.34 in1027.4 mb 0.00 in0.0 mm 0.00 in0.0 mm 0.00 in0.0 mm
01:40 AM 20.0°F-6.7°C 16.2°F-8.8°C 85% Calm Calm -- 30.34 in1027.4 mb 0.00 in0.0 mm 0.00 in0.0 mm 0.00 in0.0 mm
01:30 AM 20.1°F-6.6°C 18.1°F-7.7°C 92% Calm Calm -- 30.33 in1027.1 mb 0.00 in0.0 mm 0.00 in0.0 mm 0.00 in0.0 mm
01:20 AM 20.2°F-6.6°C 16.1°F-8.8°C 84% Calm Calm -- 30.33 in1027.1 mb 0.00 in0.0 mm 0.00 in0.0 mm 0.00 in0.0 mm
01:10 AM 20.3°F-6.5°C 16.2°F-8.8°C 84% Calm Calm -- 30.33 in1027.1 mb 0.00 in0.0 mm 0.00 in0.0 mm 0.00 in0.0 mm
01:00 AM 20.4°F-6.4°C 16.1°F-8.8°C 83% Calm Calm -- 30.33 in1027.1 mb 0.00 in0.0 mm 0.00 in0.0 mm 0.00 in0.0 mm
12:50 AM 20.6°F-6.3°C 16.3°F-8.7°C 83% Calm Calm -- 30.33 in1027.1 mb 0.00 in0.0 mm 0.00 in0.0 mm 0.00 in0.0 mm
12:40 AM 20.7°F-6.3°C 16.4°F-8.7°C 83% Calm Calm -- 30.33 in1027.1 mb 0.00 in0.0 mm 0.00 in0.0 mm 0.00 in0.0 mm
12:30 AM 20.9°F-6.2°C 16.5°F-8.6°C 83% Calm Calm -- 30.34 in1027.4 mb 0.00 in0.0 mm 0.00 in0.0 mm 0.00 in0.0 mm
12:20 AM 21.1°F-6.1°C 16.5°F-8.6°C 82% Calm Calm -- 30.34 in1027.4 mb 0.00 in0.0 mm 0.00 in0.0 mm 0.00 in0.0 mm
12:10 AM 21.3°F-5.9°C 16.6°F-8.6°C 82% Calm Calm -- 30.34 in1027.4 mb 0.00 in0.0 mm 0.00 in0.0 mm 0.00 in0.0 mm
12:00 AM 21.4°F-5.9°C 16.8°F-8.4°C 82% Calm Calm -- 30.34 in1027.4 mb 0.00 in0.0 mm 0.00 in0.0 mm 0.00 in0.0 mm